sensor_id;sensor_type;location;lat;lon;timestamp;P1;durP1;ratioP1;P2;durP2;ratioP2
83278;SDS011;73398;51.844;10.790;2024-03-17T00:01:52;4.90;;;2.35;;
83278;SDS011;73398;51.844;10.790;2024-03-17T00:04:18;6.25;;;2.88;;
83278;SDS011;73398;51.844;10.790;2024-03-17T00:06:45;5.95;;;2.97;;
83278;SDS011;73398;51.844;10.790;2024-03-17T00:09:11;7.22;;;3.03;;
83278;SDS011;73398;51.844;10.790;2024-03-17T00:11:38;4.03;;;2.40;;
83278;SDS011;73398;51.844;10.790;2024-03-17T00:14:04;3.38;;;2.63;;
83278;SDS011;73398;51.844;10.790;2024-03-17T00:16:31;6.22;;;3.38;;
83278;SDS011;73398;51.844;10.790;2024-03-17T00:18:57;2.78;;;2.30;;
83278;SDS011;73398;51.844;10.790;2024-03-17T00:21:23;3.25;;;2.17;;
83278;SDS011;73398;51.844;10.790;2024-03-17T00:23:51;5.18;;;2.80;;
83278;SDS011;73398;51.844;10.790;2024-03-17T00:26:17;4.85;;;2.53;;
83278;SDS011;73398;51.844;10.790;2024-03-17T00:28:44;4.18;;;2.90;;
83278;SDS011;73398;51.844;10.790;2024-03-17T00:31:13;4.43;;;2.20;;
83278;SDS011;73398;51.844;10.790;2024-03-17T00:33:40;4.30;;;2.30;;
83278;SDS011;73398;51.844;10.790;2024-03-17T00:36:06;5.03;;;2.75;;
83278;SDS011;73398;51.844;10.790;2024-03-17T00:38:32;8.10;;;2.83;;
83278;SDS011;73398;51.844;10.790;2024-03-17T00:40:58;3.08;;;2.42;;
83278;SDS011;73398;51.844;10.790;2024-03-17T00:43:24;6.20;;;2.42;;
83278;SDS011;73398;51.844;10.790;2024-03-17T00:45:53;4.22;;;2.72;;
83278;SDS011;73398;51.844;10.790;2024-03-17T00:48:19;3.75;;;2.42;;
83278;SDS011;73398;51.844;10.790;2024-03-17T00:50:45;5.00;;;2.45;;
83278;SDS011;73398;51.844;10.790;2024-03-17T00:53:11;8.07;;;2.92;;
83278;SDS011;73398;51.844;10.790;2024-03-17T00:55:37;4.45;;;3.17;;
83278;SDS011;73398;51.844;10.790;2024-03-17T00:58:04;6.65;;;2.67;;
83278;SDS011;73398;51.844;10.790;2024-03-17T01:00:31;4.85;;;2.80;;
83278;SDS011;73398;51.844;10.790;2024-03-17T01:02:59;3.50;;;2.47;;
83278;SDS011;73398;51.844;10.790;2024-03-17T01:05:25;4.53;;;2.65;;
83278;SDS011;73398;51.844;10.790;2024-03-17T01:07:51;8.25;;;2.60;;
83278;SDS011;73398;51.844;10.790;2024-03-17T01:10:18;5.20;;;2.45;;
83278;SDS011;73398;51.844;10.790;2024-03-17T01:12:44;5.97;;;2.60;;
83278;SDS011;73398;51.844;10.790;2024-03-17T01:15:10;6.55;;;2.55;;
83278;SDS011;73398;51.844;10.790;2024-03-17T01:17:36;8.02;;;3.63;;
83278;SDS011;73398;51.844;10.790;2024-03-17T01:20:02;6.30;;;2.47;;
83278;SDS011;73398;51.844;10.790;2024-03-17T01:22:28;3.80;;;2.40;;
83278;SDS011;73398;51.844;10.790;2024-03-17T01:24:54;4.10;;;3.17;;
83278;SDS011;73398;51.844;10.790;2024-03-17T01:27:20;6.45;;;3.25;;
83278;SDS011;73398;51.844;10.790;2024-03-17T01:29:46;7.63;;;3.80;;
83278;SDS011;73398;51.844;10.790;2024-03-17T01:32:12;3.50;;;2.95;;
83278;SDS011;73398;51.844;10.790;2024-03-17T01:34:38;5.60;;;3.15;;
83278;SDS011;73398;51.844;10.790;2024-03-17T01:37:04;6.78;;;2.88;;
83278;SDS011;73398;51.844;10.790;2024-03-17T01:39:30;5.65;;;2.95;;
83278;SDS011;73398;51.844;10.790;2024-03-17T01:41:57;4.75;;;2.72;;
83278;SDS011;73398;51.844;10.790;2024-03-17T01:44:24;4.15;;;2.72;;
83278;SDS011;73398;51.844;10.790;2024-03-17T01:46:51;4.68;;;2.60;;
83278;SDS011;73398;51.844;10.790;2024-03-17T01:49:17;5.93;;;2.70;;
83278;SDS011;73398;51.844;10.790;2024-03-17T01:51:44;7.07;;;2.72;;
83278;SDS011;73398;51.844;10.790;2024-03-17T01:54:10;4.97;;;2.05;;
83278;SDS011;73398;51.844;10.790;2024-03-17T01:56:37;4.57;;;2.38;;
83278;SDS011;73398;51.844;10.790;2024-03-17T01:59:04;4.80;;;2.10;;
83278;SDS011;73398;51.844;10.790;2024-03-17T02:01:30;8.13;;;3.38;;
83278;SDS011;73398;51.844;10.790;2024-03-17T02:03:56;8.23;;;2.40;;
83278;SDS011;73398;51.844;10.790;2024-03-17T02:06:23;4.03;;;2.72;;
83278;SDS011;73398;51.844;10.790;2024-03-17T02:08:52;7.43;;;3.22;;
83278;SDS011;73398;51.844;10.790;2024-03-17T02:11:26;5.03;;;2.72;;
83278;SDS011;73398;51.844;10.790;2024-03-17T02:13:52;5.20;;;3.40;;
83278;SDS011;73398;51.844;10.790;2024-03-17T02:16:19;10.23;;;4.05;;
83278;SDS011;73398;51.844;10.790;2024-03-17T02:18:45;8.65;;;4.43;;
83278;SDS011;73398;51.844;10.790;2024-03-17T02:21:11;17.08;;;7.32;;
83278;SDS011;73398;51.844;10.790;2024-03-17T02:23:37;8.10;;;4.22;;
83278;SDS011;73398;51.844;10.790;2024-03-17T02:26:03;9.07;;;4.78;;
83278;SDS011;73398;51.844;10.790;2024-03-17T02:28:29;9.27;;;3.67;;
83278;SDS011;73398;51.844;10.790;2024-03-17T02:31:03;5.82;;;3.00;;
83278;SDS011;73398;51.844;10.790;2024-03-17T02:33:30;4.32;;;2.75;;
83278;SDS011;73398;51.844;10.790;2024-03-17T02:35:55;3.33;;;2.50;;
83278;SDS011;73398;51.844;10.790;2024-03-17T02:38:21;5.88;;;3.03;;
83278;SDS011;73398;51.844;10.790;2024-03-17T02:41:06;5.05;;;3.05;;
83278;SDS011;73398;51.844;10.790;2024-03-17T02:43:32;5.38;;;3.60;;
83278;SDS011;73398;51.844;10.790;2024-03-17T02:45:58;6.28;;;3.65;;
83278;SDS011;73398;51.844;10.790;2024-03-17T02:48:24;6.78;;;3.83;;
83278;SDS011;73398;51.844;10.790;2024-03-17T02:50:50;7.30;;;4.65;;
83278;SDS011;73398;51.844;10.790;2024-03-17T02:53:16;7.60;;;4.57;;
83278;SDS011;73398;51.844;10.790;2024-03-17T02:55:42;8.18;;;4.63;;
83278;SDS011;73398;51.844;10.790;2024-03-17T02:58:08;10.52;;;4.53;;
83278;SDS011;73398;51.844;10.790;2024-03-17T03:00:33;9.45;;;4.80;;
83278;SDS011;73398;51.844;10.790;2024-03-17T03:03:00;11.63;;;4.68;;
83278;SDS011;73398;51.844;10.790;2024-03-17T03:05:26;4.93;;;3.00;;
83278;SDS011;73398;51.844;10.790;2024-03-17T03:07:52;7.80;;;3.42;;
83278;SDS011;73398;51.844;10.790;2024-03-17T03:10:18;6.30;;;3.47;;
83278;SDS011;73398;51.844;10.790;2024-03-17T03:12:44;8.45;;;4.20;;
83278;SDS011;73398;51.844;10.790;2024-03-17T03:15:10;6.88;;;3.65;;
83278;SDS011;73398;51.844;10.790;2024-03-17T03:17:36;10.85;;;4.72;;
83278;SDS011;73398;51.844;10.790;2024-03-17T03:20:02;6.45;;;3.35;;
83278;SDS011;73398;51.844;10.790;2024-03-17T03:22:28;9.60;;;4.38;;
83278;SDS011;73398;51.844;10.790;2024-03-17T03:24:54;6.22;;;3.50;;
83278;SDS011;73398;51.844;10.790;2024-03-17T03:27:20;8.50;;;4.10;;
83278;SDS011;73398;51.844;10.790;2024-03-17T03:29:46;12.07;;;5.53;;
83278;SDS011;73398;51.844;10.790;2024-03-17T03:32:12;17.88;;;7.07;;
83278;SDS011;73398;51.844;10.790;2024-03-17T03:34:38;11.55;;;5.95;;
83278;SDS011;73398;51.844;10.790;2024-03-17T03:37:04;7.75;;;4.15;;
83278;SDS011;73398;51.844;10.790;2024-03-17T03:39:32;6.80;;;4.03;;
83278;SDS011;73398;51.844;10.790;2024-03-17T03:41:58;4.82;;;3.70;;
83278;SDS011;73398;51.844;10.790;2024-03-17T03:44:24;6.60;;;3.33;;
83278;SDS011;73398;51.844;10.790;2024-03-17T03:46:49;6.13;;;3.33;;
83278;SDS011;73398;51.844;10.790;2024-03-17T03:49:17;7.45;;;3.88;;
83278;SDS011;73398;51.844;10.790;2024-03-17T03:51:44;6.40;;;3.88;;
83278;SDS011;73398;51.844;10.790;2024-03-17T03:54:10;6.50;;;3.95;;
83278;SDS011;73398;51.844;10.790;2024-03-17T03:56:37;5.40;;;3.55;;
83278;SDS011;73398;51.844;10.790;2024-03-17T03:59:03;4.70;;;3.10;;
83278;SDS011;73398;51.844;10.790;2024-03-17T04:01:30;8.32;;;3.63;;
83278;SDS011;73398;51.844;10.790;2024-03-17T04:03:56;8.25;;;4.05;;
83278;SDS011;73398;51.844;10.790;2024-03-17T04:06:22;8.10;;;3.72;;
83278;SDS011;73398;51.844;10.790;2024-03-17T04:08:48;10.55;;;5.38;;
83278;SDS011;73398;51.844;10.790;2024-03-17T04:11:14;8.50;;;4.35;;
83278;SDS011;73398;51.844;10.790;2024-03-17T04:13:40;6.78;;;3.85;;
83278;SDS011;73398;51.844;10.790;2024-03-17T04:16:07;8.77;;;4.00;;
83278;SDS011;73398;51.844;10.790;2024-03-17T04:18:33;9.68;;;4.22;;
83278;SDS011;73398;51.844;10.790;2024-03-17T04:21:03;7.80;;;4.10;;
83278;SDS011;73398;51.844;10.790;2024-03-17T04:23:29;11.75;;;4.18;;
83278;SDS011;73398;51.844;10.790;2024-03-17T04:25:59;7.82;;;4.13;;
83278;SDS011;73398;51.844;10.790;2024-03-17T04:28:26;7.78;;;3.90;;
83278;SDS011;73398;51.844;10.790;2024-03-17T04:30:52;9.48;;;3.90;;
83278;SDS011;73398;51.844;10.790;2024-03-17T04:33:17;8.85;;;4.47;;
83278;SDS011;73398;51.844;10.790;2024-03-17T04:35:43;6.80;;;4.05;;
83278;SDS011;73398;51.844;10.790;2024-03-17T04:38:09;13.05;;;5.15;;
83278;SDS011;73398;51.844;10.790;2024-03-17T04:40:41;6.63;;;3.67;;
83278;SDS011;73398;51.844;10.790;2024-03-17T04:43:08;11.85;;;4.60;;
83278;SDS011;73398;51.844;10.790;2024-03-17T04:45:34;11.35;;;3.78;;
83278;SDS011;73398;51.844;10.790;2024-03-17T04:48:00;4.88;;;3.35;;
83278;SDS011;73398;51.844;10.790;2024-03-17T04:50:26;6.93;;;3.40;;
83278;SDS011;73398;51.844;10.790;2024-03-17T04:52:56;7.07;;;3.42;;
83278;SDS011;73398;51.844;10.790;2024-03-17T04:55:22;7.63;;;3.40;;
83278;SDS011;73398;51.844;10.790;2024-03-17T04:57:48;12.90;;;4.88;;
83278;SDS011;73398;51.844;10.790;2024-03-17T05:00:14;15.15;;;8.25;;
83278;SDS011;73398;51.844;10.790;2024-03-17T05:02:42;12.18;;;7.90;;
83278;SDS011;73398;51.844;10.790;2024-03-17T05:05:08;9.55;;;4.35;;
83278;SDS011;73398;51.844;10.790;2024-03-17T05:07:35;9.25;;;3.85;;
83278;SDS011;73398;51.844;10.790;2024-03-17T05:10:01;10.02;;;4.00;;
83278;SDS011;73398;51.844;10.790;2024-03-17T05:12:27;7.25;;;4.25;;
83278;SDS011;73398;51.844;10.790;2024-03-17T05:14:53;6.57;;;3.45;;
83278;SDS011;73398;51.844;10.790;2024-03-17T05:17:19;6.28;;;3.72;;
83278;SDS011;73398;51.844;10.790;2024-03-17T05:19:45;9.23;;;4.10;;
83278;SDS011;73398;51.844;10.790;2024-03-17T05:22:11;7.05;;;4.05;;
83278;SDS011;73398;51.844;10.790;2024-03-17T05:24:37;9.38;;;3.80;;
83278;SDS011;73398;51.844;10.790;2024-03-17T05:27:03;10.15;;;4.10;;
83278;SDS011;73398;51.844;10.790;2024-03-17T05:29:29;9.90;;;4.00;;
83278;SDS011;73398;51.844;10.790;2024-03-17T05:31:55;10.93;;;3.67;;
83278;SDS011;73398;51.844;10.790;2024-03-17T05:34:21;6.93;;;3.47;;
83278;SDS011;73398;51.844;10.790;2024-03-17T05:36:49;5.90;;;4.00;;
83278;SDS011;73398;51.844;10.790;2024-03-17T05:39:15;9.27;;;3.80;;
83278;SDS011;73398;51.844;10.790;2024-03-17T05:41:42;7.13;;;3.30;;
83278;SDS011;73398;51.844;10.790;2024-03-17T05:44:08;8.90;;;3.50;;
83278;SDS011;73398;51.844;10.790;2024-03-17T05:46:34;7.22;;;3.00;;
83278;SDS011;73398;51.844;10.790;2024-03-17T05:49:00;6.07;;;3.10;;
83278;SDS011;73398;51.844;10.790;2024-03-17T05:51:28;6.45;;;3.25;;
83278;SDS011;73398;51.844;10.790;2024-03-17T05:53:54;6.53;;;3.35;;
83278;SDS011;73398;51.844;10.790;2024-03-17T05:56:20;8.65;;;4.05;;
83278;SDS011;73398;51.844;10.790;2024-03-17T05:58:47;7.90;;;3.70;;
83278;SDS011;73398;51.844;10.790;2024-03-17T06:01:13;7.50;;;4.00;;
83278;SDS011;73398;51.844;10.790;2024-03-17T06:03:39;7.78;;;3.53;;
83278;SDS011;73398;51.844;10.790;2024-03-17T06:06:06;9.25;;;4.28;;
83278;SDS011;73398;51.844;10.790;2024-03-17T06:08:36;7.85;;;3.85;;
83278;SDS011;73398;51.844;10.790;2024-03-17T06:11:02;6.53;;;2.80;;
83278;SDS011;73398;51.844;10.790;2024-03-17T06:13:29;8.55;;;3.58;;
83278;SDS011;73398;51.844;10.790;2024-03-17T06:15:55;6.80;;;3.42;;
83278;SDS011;73398;51.844;10.790;2024-03-17T06:18:26;6.63;;;3.88;;
83278;SDS011;73398;51.844;10.790;2024-03-17T06:20:52;8.05;;;3.38;;
83278;SDS011;73398;51.844;10.790;2024-03-17T06:23:18;6.63;;;3.22;;
83278;SDS011;73398;51.844;10.790;2024-03-17T06:25:47;6.03;;;3.20;;
83278;SDS011;73398;51.844;10.790;2024-03-17T06:28:14;8.75;;;3.42;;
83278;SDS011;73398;51.844;10.790;2024-03-17T06:30:40;6.00;;;3.08;;
83278;SDS011;73398;51.844;10.790;2024-03-17T06:33:06;8.93;;;3.15;;
83278;SDS011;73398;51.844;10.790;2024-03-17T06:35:33;4.55;;;2.60;;
83278;SDS011;73398;51.844;10.790;2024-03-17T06:38:01;5.07;;;3.53;;
83278;SDS011;73398;51.844;10.790;2024-03-17T06:40:27;6.25;;;3.95;;
83278;SDS011;73398;51.844;10.790;2024-03-17T06:42:53;7.35;;;4.15;;
83278;SDS011;73398;51.844;10.790;2024-03-17T06:45:19;8.55;;;3.65;;
83278;SDS011;73398;51.844;10.790;2024-03-17T06:47:49;6.30;;;3.60;;
83278;SDS011;73398;51.844;10.790;2024-03-17T06:50:15;6.95;;;4.10;;
83278;SDS011;73398;51.844;10.790;2024-03-17T06:52:41;5.75;;;3.85;;
83278;SDS011;73398;51.844;10.790;2024-03-17T06:55:07;9.10;;;3.85;;
83278;SDS011;73398;51.844;10.790;2024-03-17T06:57:33;9.93;;;4.00;;
83278;SDS011;73398;51.844;10.790;2024-03-17T06:59:59;8.57;;;3.30;;
83278;SDS011;73398;51.844;10.790;2024-03-17T07:02:25;8.05;;;3.85;;
83278;SDS011;73398;51.844;10.790;2024-03-17T07:04:51;19.20;;;6.85;;
83278;SDS011;73398;51.844;10.790;2024-03-17T07:07:17;11.30;;;6.25;;
83278;SDS011;73398;51.844;10.790;2024-03-17T07:09:43;9.07;;;6.03;;
83278;SDS011;73398;51.844;10.790;2024-03-17T07:12:09;15.10;;;6.90;;
83278;SDS011;73398;51.844;10.790;2024-03-17T07:14:36;9.40;;;6.50;;
83278;SDS011;73398;51.844;10.790;2024-03-17T07:17:02;6.07;;;4.70;;
83278;SDS011;73398;51.844;10.790;2024-03-17T07:19:28;8.57;;;3.88;;
83278;SDS011;73398;51.844;10.790;2024-03-17T07:21:55;7.07;;;3.10;;
83278;SDS011;73398;51.844;10.790;2024-03-17T07:24:22;6.18;;;2.85;;
83278;SDS011;73398;51.844;10.790;2024-03-17T07:26:48;6.03;;;2.90;;
83278;SDS011;73398;51.844;10.790;2024-03-17T07:29:14;6.00;;;3.58;;
83278;SDS011;73398;51.844;10.790;2024-03-17T07:31:40;8.88;;;3.70;;
83278;SDS011;73398;51.844;10.790;2024-03-17T07:34:06;5.72;;;3.28;;
83278;SDS011;73398;51.844;10.790;2024-03-17T07:36:32;4.55;;;3.15;;
83278;SDS011;73398;51.844;10.790;2024-03-17T07:38:58;6.68;;;3.58;;
83278;SDS011;73398;51.844;10.790;2024-03-17T07:41:24;7.80;;;3.40;;
83278;SDS011;73398;51.844;10.790;2024-03-17T07:43:50;3.70;;;2.58;;
83278;SDS011;73398;51.844;10.790;2024-03-17T07:46:16;6.95;;;3.25;;
83278;SDS011;73398;51.844;10.790;2024-03-17T07:48:42;5.85;;;3.15;;
83278;SDS011;73398;51.844;10.790;2024-03-17T07:51:13;4.97;;;2.80;;
83278;SDS011;73398;51.844;10.790;2024-03-17T07:53:42;6.57;;;3.05;;
83278;SDS011;73398;51.844;10.790;2024-03-17T07:56:10;9.05;;;3.20;;
83278;SDS011;73398;51.844;10.790;2024-03-17T07:58:38;4.57;;;2.83;;
83278;SDS011;73398;51.844;10.790;2024-03-17T08:01:05;7.32;;;2.72;;
83278;SDS011;73398;51.844;10.790;2024-03-17T08:03:32;5.43;;;3.05;;
83278;SDS011;73398;51.844;10.790;2024-03-17T08:05:58;7.07;;;3.20;;
83278;SDS011;73398;51.844;10.790;2024-03-17T08:08:24;5.35;;;3.30;;
83278;SDS011;73398;51.844;10.790;2024-03-17T08:10:50;10.45;;;2.78;;
83278;SDS011;73398;51.844;10.790;2024-03-17T08:13:18;6.93;;;2.95;;
83278;SDS011;73398;51.844;10.790;2024-03-17T08:15:44;5.43;;;2.70;;
83278;SDS011;73398;51.844;10.790;2024-03-17T08:18:11;7.97;;;2.35;;
83278;SDS011;73398;51.844;10.790;2024-03-17T08:20:40;5.40;;;2.38;;
83278;SDS011;73398;51.844;10.790;2024-03-17T08:23:07;4.95;;;2.50;;
83278;SDS011;73398;51.844;10.790;2024-03-17T08:25:33;5.03;;;2.03;;
83278;SDS011;73398;51.844;10.790;2024-03-17T08:27:59;6.97;;;2.20;;
83278;SDS011;73398;51.844;10.790;2024-03-17T08:30:26;5.03;;;2.22;;
83278;SDS011;73398;51.844;10.790;2024-03-17T08:32:51;6.97;;;2.40;;
83278;SDS011;73398;51.844;10.790;2024-03-17T08:35:17;8.13;;;2.65;;
83278;SDS011;73398;51.844;10.790;2024-03-17T08:37:43;4.70;;;2.15;;
83278;SDS011;73398;51.844;10.790;2024-03-17T08:40:10;9.60;;;3.20;;
83278;SDS011;73398;51.844;10.790;2024-03-17T08:42:36;5.78;;;2.25;;
83278;SDS011;73398;51.844;10.790;2024-03-17T08:45:02;8.48;;;2.50;;
83278;SDS011;73398;51.844;10.790;2024-03-17T08:47:28;5.78;;;2.20;;
83278;SDS011;73398;51.844;10.790;2024-03-17T08:49:54;4.88;;;2.30;;
83278;SDS011;73398;51.844;10.790;2024-03-17T08:52:20;7.32;;;2.53;;
83278;SDS011;73398;51.844;10.790;2024-03-17T08:54:46;4.43;;;2.30;;
83278;SDS011;73398;51.844;10.790;2024-03-17T08:57:12;5.28;;;2.38;;
83278;SDS011;73398;51.844;10.790;2024-03-17T08:59:38;3.75;;;2.17;;
83278;SDS011;73398;51.844;10.790;2024-03-17T09:02:04;4.10;;;2.28;;
83278;SDS011;73398;51.844;10.790;2024-03-17T09:04:31;4.32;;;2.33;;
83278;SDS011;73398;51.844;10.790;2024-03-17T09:06:57;6.93;;;2.35;;
83278;SDS011;73398;51.844;10.790;2024-03-17T09:09:25;7.95;;;2.78;;
83278;SDS011;73398;51.844;10.790;2024-03-17T09:11:51;8.30;;;2.50;;
83278;SDS011;73398;51.844;10.790;2024-03-17T09:14:17;4.55;;;2.08;;
83278;SDS011;73398;51.844;10.790;2024-03-17T09:16:43;6.70;;;2.40;;
83278;SDS011;73398;51.844;10.790;2024-03-17T09:19:10;3.88;;;2.35;;
83278;SDS011;73398;51.844;10.790;2024-03-17T09:21:36;4.88;;;2.50;;
83278;SDS011;73398;51.844;10.790;2024-03-17T09:24:04;4.10;;;2.15;;
83278;SDS011;73398;51.844;10.790;2024-03-17T09:26:30;3.67;;;2.38;;
83278;SDS011;73398;51.844;10.790;2024-03-17T09:28:56;6.40;;;2.15;;
83278;SDS011;73398;51.844;10.790;2024-03-17T09:31:22;7.70;;;2.50;;
83278;SDS011;73398;51.844;10.790;2024-03-17T09:33:48;4.82;;;2.60;;
83278;SDS011;73398;51.844;10.790;2024-03-17T09:36:13;4.20;;;2.35;;
83278;SDS011;73398;51.844;10.790;2024-03-17T09:38:39;5.85;;;2.47;;
83278;SDS011;73398;51.844;10.790;2024-03-17T09:41:06;6.63;;;2.83;;
83278;SDS011;73398;51.844;10.790;2024-03-17T09:43:33;5.80;;;2.90;;
83278;SDS011;73398;51.844;10.790;2024-03-17T09:46:01;4.88;;;2.53;;
83278;SDS011;73398;51.844;10.790;2024-03-17T09:48:27;6.05;;;2.78;;
83278;SDS011;73398;51.844;10.790;2024-03-17T09:51:00;5.78;;;2.65;;
83278;SDS011;73398;51.844;10.790;2024-03-17T09:55:52;7.40;;;3.15;;
83278;SDS011;73398;51.844;10.790;2024-03-17T09:58:18;4.88;;;2.33;;
83278;SDS011;73398;51.844;10.790;2024-03-17T10:00:45;5.55;;;2.70;;
83278;SDS011;73398;51.844;10.790;2024-03-17T10:03:11;7.68;;;2.88;;
83278;SDS011;73398;51.844;10.790;2024-03-17T10:05:37;5.72;;;2.55;;
83278;SDS011;73398;51.844;10.790;2024-03-17T10:08:03;5.03;;;2.65;;
83278;SDS011;73398;51.844;10.790;2024-03-17T10:10:29;5.78;;;2.50;;
83278;SDS011;73398;51.844;10.790;2024-03-17T10:12:55;5.13;;;3.20;;
83278;SDS011;73398;51.844;10.790;2024-03-17T10:15:21;7.30;;;2.58;;
83278;SDS011;73398;51.844;10.790;2024-03-17T10:17:48;4.13;;;2.58;;
83278;SDS011;73398;51.844;10.790;2024-03-17T10:20:15;4.03;;;2.90;;
83278;SDS011;73398;51.844;10.790;2024-03-17T10:25:23;4.32;;;2.85;;
83278;SDS011;73398;51.844;10.790;2024-03-17T10:27:49;3.47;;;3.17;;
83278;SDS011;73398;51.844;10.790;2024-03-17T10:30:17;5.35;;;2.50;;
83278;SDS011;73398;51.844;10.790;2024-03-17T10:32:45;3.45;;;2.47;;
83278;SDS011;73398;51.844;10.790;2024-03-17T10:37:59;4.35;;;2.33;;
83278;SDS011;73398;51.844;10.790;2024-03-17T10:40:25;2.70;;;2.30;;
83278;SDS011;73398;51.844;10.790;2024-03-17T10:42:52;4.47;;;2.63;;
83278;SDS011;73398;51.844;10.790;2024-03-17T10:45:18;4.55;;;2.58;;
83278;SDS011;73398;51.844;10.790;2024-03-17T10:47:49;2.97;;;2.38;;
83278;SDS011;73398;51.844;10.790;2024-03-17T10:50:16;4.95;;;3.03;;
83278;SDS011;73398;51.844;10.790;2024-03-17T10:52:44;5.90;;;2.78;;
83278;SDS011;73398;51.844;10.790;2024-03-17T10:55:19;4.47;;;2.90;;
83278;SDS011;73398;51.844;10.790;2024-03-17T10:57:46;4.78;;;2.65;;
83278;SDS011;73398;51.844;10.790;2024-03-17T11:00:16;3.45;;;2.72;;
83278;SDS011;73398;51.844;10.790;2024-03-17T11:02:43;3.67;;;2.80;;
83278;SDS011;73398;51.844;10.790;2024-03-17T11:05:17;4.00;;;2.55;;
83278;SDS011;73398;51.844;10.790;2024-03-17T11:07:44;5.32;;;3.00;;
83278;SDS011;73398;51.844;10.790;2024-03-17T11:10:24;4.75;;;2.40;;
83278;SDS011;73398;51.844;10.790;2024-03-17T11:12:59;5.38;;;2.50;;
83278;SDS011;73398;51.844;10.790;2024-03-17T11:17:56;4.10;;;2.65;;
83278;SDS011;73398;51.844;10.790;2024-03-17T11:20:42;6.40;;;3.10;;
83278;SDS011;73398;51.844;10.790;2024-03-17T11:23:08;6.30;;;2.85;;
83278;SDS011;73398;51.844;10.790;2024-03-17T11:25:37;3.67;;;2.83;;
83278;SDS011;73398;51.844;10.790;2024-03-17T11:28:04;4.97;;;2.80;;
83278;SDS011;73398;51.844;10.790;2024-03-17T11:33:02;4.53;;;3.30;;
83278;SDS011;73398;51.844;10.790;2024-03-17T11:35:29;6.22;;;3.22;;
83278;SDS011;73398;51.844;10.790;2024-03-17T11:37:54;4.75;;;3.17;;
83278;SDS011;73398;51.844;10.790;2024-03-17T11:40:24;5.10;;;2.97;;
83278;SDS011;73398;51.844;10.790;2024-03-17T11:43:03;7.18;;;3.15;;
83278;SDS011;73398;51.844;10.790;2024-03-17T11:45:30;3.63;;;2.88;;
83278;SDS011;73398;51.844;10.790;2024-03-17T11:47:56;6.72;;;3.55;;
83278;SDS011;73398;51.844;10.790;2024-03-17T11:50:23;5.60;;;3.20;;
83278;SDS011;73398;51.844;10.790;2024-03-17T11:52:58;5.95;;;3.95;;
83278;SDS011;73398;51.844;10.790;2024-03-17T11:55:24;7.03;;;3.22;;
83278;SDS011;73398;51.844;10.790;2024-03-17T11:57:55;4.80;;;3.10;;
83278;SDS011;73398;51.844;10.790;2024-03-17T12:00:21;5.65;;;2.97;;
83278;SDS011;73398;51.844;10.790;2024-03-17T12:02:48;5.35;;;3.00;;
83278;SDS011;73398;51.844;10.790;2024-03-17T12:05:15;4.43;;;2.95;;
83278;SDS011;73398;51.844;10.790;2024-03-17T12:07:43;5.35;;;3.45;;
83278;SDS011;73398;51.844;10.790;2024-03-17T12:10:12;7.20;;;3.50;;
83278;SDS011;73398;51.844;10.790;2024-03-17T12:12:39;3.58;;;3.15;;
83278;SDS011;73398;51.844;10.790;2024-03-17T12:15:18;4.78;;;2.72;;
83278;SDS011;73398;51.844;10.790;2024-03-17T12:17:45;4.97;;;2.88;;
83278;SDS011;73398;51.844;10.790;2024-03-17T12:20:17;4.15;;;2.75;;
83278;SDS011;73398;51.844;10.790;2024-03-17T12:22:44;5.07;;;3.00;;
83278;SDS011;73398;51.844;10.790;2024-03-17T12:25:16;3.90;;;2.80;;
83278;SDS011;73398;51.844;10.790;2024-03-17T12:27:43;5.70;;;3.20;;
83278;SDS011;73398;51.844;10.790;2024-03-17T12:30:10;4.57;;;3.03;;
83278;SDS011;73398;51.844;10.790;2024-03-17T12:32:36;4.30;;;2.85;;
83278;SDS011;73398;51.844;10.790;2024-03-17T12:35:02;6.43;;;2.97;;
83278;SDS011;73398;51.844;10.790;2024-03-17T12:37:28;5.57;;;2.78;;
83278;SDS011;73398;51.844;10.790;2024-03-17T12:40:00;3.38;;;3.08;;
83278;SDS011;73398;51.844;10.790;2024-03-17T12:42:27;4.53;;;3.15;;
83278;SDS011;73398;51.844;10.790;2024-03-17T12:44:54;5.00;;;3.30;;
83278;SDS011;73398;51.844;10.790;2024-03-17T12:47:21;4.20;;;3.03;;
83278;SDS011;73398;51.844;10.790;2024-03-17T12:49:49;7.78;;;3.13;;
83278;SDS011;73398;51.844;10.790;2024-03-17T12:52:19;5.07;;;3.25;;
83278;SDS011;73398;51.844;10.790;2024-03-17T12:54:45;6.15;;;3.40;;
83278;SDS011;73398;51.844;10.790;2024-03-17T12:57:41;4.75;;;3.13;;
83278;SDS011;73398;51.844;10.790;2024-03-17T13:00:26;4.05;;;3.22;;
83278;SDS011;73398;51.844;10.790;2024-03-17T13:03:02;4.22;;;3.05;;
83278;SDS011;73398;51.844;10.790;2024-03-17T13:05:28;4.43;;;3.03;;
83278;SDS011;73398;51.844;10.790;2024-03-17T13:07:54;4.38;;;3.03;;
83278;SDS011;73398;51.844;10.790;2024-03-17T13:10:21;5.35;;;3.85;;
83278;SDS011;73398;51.844;10.790;2024-03-17T13:12:48;5.40;;;3.72;;
83278;SDS011;73398;51.844;10.790;2024-03-17T13:15:15;5.40;;;3.08;;
83278;SDS011;73398;51.844;10.790;2024-03-17T13:17:41;4.75;;;3.47;;
83278;SDS011;73398;51.844;10.790;2024-03-17T13:20:14;4.20;;;3.15;;
83278;SDS011;73398;51.844;10.790;2024-03-17T13:22:41;5.25;;;3.50;;
83278;SDS011;73398;51.844;10.790;2024-03-17T13:25:16;5.28;;;3.25;;
83278;SDS011;73398;51.844;10.790;2024-03-17T13:27:43;6.18;;;3.13;;
83278;SDS011;73398;51.844;10.790;2024-03-17T13:30:10;4.95;;;3.63;;
83278;SDS011;73398;51.844;10.790;2024-03-17T13:32:36;4.43;;;3.17;;
83278;SDS011;73398;51.844;10.790;2024-03-17T13:35:02;6.32;;;3.10;;
83278;SDS011;73398;51.844;10.790;2024-03-17T13:37:28;4.45;;;3.22;;
83278;SDS011;73398;51.844;10.790;2024-03-17T13:39:54;7.47;;;3.70;;
83278;SDS011;73398;51.844;10.790;2024-03-17T13:42:20;4.22;;;3.55;;
83278;SDS011;73398;51.844;10.790;2024-03-17T13:44:46;3.33;;;3.03;;
83278;SDS011;73398;51.844;10.790;2024-03-17T13:47:14;4.45;;;3.03;;
83278;SDS011;73398;51.844;10.790;2024-03-17T13:49:40;6.22;;;3.47;;
83278;SDS011;73398;51.844;10.790;2024-03-17T13:52:05;4.82;;;3.20;;
83278;SDS011;73398;51.844;10.790;2024-03-17T13:54:31;5.25;;;3.17;;
83278;SDS011;73398;51.844;10.790;2024-03-17T13:56:58;3.80;;;3.15;;
83278;SDS011;73398;51.844;10.790;2024-03-17T13:59:26;4.53;;;3.35;;
83278;SDS011;73398;51.844;10.790;2024-03-17T14:01:52;4.50;;;3.35;;
83278;SDS011;73398;51.844;10.790;2024-03-17T14:04:18;5.10;;;3.42;;
83278;SDS011;73398;51.844;10.790;2024-03-17T14:06:45;5.25;;;3.25;;
83278;SDS011;73398;51.844;10.790;2024-03-17T14:09:12;5.55;;;3.70;;
83278;SDS011;73398;51.844;10.790;2024-03-17T14:11:38;6.32;;;3.55;;
83278;SDS011;73398;51.844;10.790;2024-03-17T14:14:07;4.85;;;3.33;;
83278;SDS011;73398;51.844;10.790;2024-03-17T14:16:33;5.78;;;3.53;;
83278;SDS011;73398;51.844;10.790;2024-03-17T14:18:59;5.53;;;3.42;;
83278;SDS011;73398;51.844;10.790;2024-03-17T14:21:26;5.18;;;3.58;;
83278;SDS011;73398;51.844;10.790;2024-03-17T14:23:52;6.72;;;3.90;;
83278;SDS011;73398;51.844;10.790;2024-03-17T14:26:18;6.22;;;3.78;;
83278;SDS011;73398;51.844;10.790;2024-03-17T14:28:44;4.68;;;2.97;;
83278;SDS011;73398;51.844;10.790;2024-03-17T14:31:11;5.35;;;3.80;;
83278;SDS011;73398;51.844;10.790;2024-03-17T14:33:37;5.75;;;3.78;;
83278;SDS011;73398;51.844;10.790;2024-03-17T14:36:03;4.05;;;3.65;;
83278;SDS011;73398;51.844;10.790;2024-03-17T14:38:29;6.40;;;3.95;;
83278;SDS011;73398;51.844;10.790;2024-03-17T14:40:55;4.07;;;3.33;;
83278;SDS011;73398;51.844;10.790;2024-03-17T14:43:21;6.78;;;3.58;;
83278;SDS011;73398;51.844;10.790;2024-03-17T14:45:48;4.38;;;3.50;;